Terminal Aerodrome Forecast
Issued by NWS

Home | Current Version | Previous Version | Text Only | Print | Product List | Glossary On
Versions: 1 2 3 4 5 6 7 8 9 10 11 12 13 14 15
000
FTUS43 KMQT 242338
TAFSAW
TAF
KSAW 242338Z 2500/2524 01009KT 1 1/2SM BR OVC004
     FM250200 02008KT 2SM BR OVC008
     FM250300 03008KT 3SM BR OVC010
     FM250900 04008KT P6SM BKN015
     FM251300 05006KT P6SM BKN025
     FM251700 07008KT P6SM SCT025=

USA.gov is the U.S. government's official web portal to all federal, state and local government web resources and services.